Time;durP1;ratioP1;P1;durP2;ratioP2;P2;SDS_P1;SDS_P2;PMS_P1;PMS_P2;Temp;Humidity;BMP_temperature;BMP_pressure;BME280_temperature;BME280_humidity;BME280_pressure;Samples;Min_cycle;Max_cycle;Signal;HPM_P1;HPM_P2
2022/03/26 00:00:32;;;;;;;;;;;;;;;6.89;69.58;101064.59;5031190;28;1320;-96
2022/03/26 00:02:58;;;;;;;;;;;;;;;6.88;69.64;101068.28;5014676;28;1376;-95
2022/03/26 00:05:25;;;;;;;;;;;;;;;6.87;69.41;101069.28;5011892;28;1173;-96
2022/03/26 00:07:51;;;;;;;;;;;;;;;6.88;69.60;101076.31;4995075;28;1918;-96
2022/03/26 00:10:21;;;;;;;;;;;;;;;6.87;69.88;101080.84;5003271;28;1400;-96
2022/03/26 00:12:50;;;;;;;;;;;;;;;6.86;69.85;101078.34;5014513;28;1252;-96
2022/03/26 00:15:16;;;;;;;;;;;;;;;6.87;69.48;101088.03;5004134;28;1231;-95
2022/03/26 00:17:43;;;;;;;;;;;;;;;6.86;69.57;101097.09;5007947;28;3551;-96
2022/03/26 00:20:09;;;;;;;;;;;;;;;6.85;69.80;101098.91;5032024;28;1247;-96
2022/03/26 00:22:36;;;;;;;;;;;;;;;6.85;69.62;101098.09;5023630;28;1208;-96
2022/03/26 00:25:02;;;;;;;;;;;;;;;6.85;69.64;101103.44;5014473;28;1227;-96
2022/03/26 00:27:30;;;;;;;;;;;;;;;6.83;69.59;101104.47;5012816;28;1914;-94
2022/03/26 00:29:57;;;;;;;;;;;;;;;6.84;69.79;101107.97;5015741;28;1152;-95
2022/03/26 00:32:24;;;;;;;;;;;;;;;6.83;69.98;101112.50;5014441;28;1341;-96
2022/03/26 00:34:50;;;;;;;;;;;;;;;6.83;69.73;101117.03;5020522;28;1505;-96
2022/03/26 00:37:17;;;;;;;;;;;;;;;6.83;70.06;101114.34;5013935;28;2026;-95
2022/03/26 00:39:43;;;;;;;;;;;;;;;6.82;69.95;101121.56;5014644;28;1179;-95
2022/03/26 00:42:10;;;;;;;;;;;;;;;6.81;69.91;101122.56;5013581;28;2196;-95
2022/03/26 00:44:36;;;;;;;;;;;;;;;6.82;69.93;101136.75;5019489;28;1525;-95
2022/03/26 00:47:03;;;;;;;;;;;;;;;6.81;69.91;101140.47;5010254;28;1922;-96
2022/03/26 00:49:30;;;;;;;;;;;;;;;6.80;69.72;101149.53;5017656;28;1665;-96
2022/03/26 00:51:56;;;;;;;;;;;;;;;6.78;69.60;101146.19;5018154;28;1278;-96
2022/03/26 00:54:23;;;;;;;;;;;;;;;6.79;69.28;101155.88;5034897;28;1301;-95
2022/03/26 00:56:49;;;;;;;;;;;;;;;6.77;69.73;101149.88;5033681;28;1643;-96
2022/03/26 00:59:16;;;;;;;;;;;;;;;6.76;69.32;101159.72;5017415;28;1448;-95
2022/03/26 01:01:43;;;;;;;;;;;;;;;6.77;69.62;101165.94;5018232;28;1160;-96
2022/03/26 01:04:09;;;;;;;;;;;;;;;6.76;69.23;101161.59;5014129;28;1940;-95
2022/03/26 01:06:36;;;;;;;;;;;;;;;6.74;69.38;101160.97;5013971;28;1982;-96
2022/03/26 01:09:02;;;;;;;;;;;;;;;6.74;69.33;101160.97;5032448;28;1301;-96
2022/03/26 01:11:29;;;;;;;;;;;;;;;6.73;69.44;101170.81;5025822;28;1382;-95
2022/03/26 01:13:57;;;;;;;;;;;;;;;6.73;69.18;101180.69;5017521;28;1245;-96
2022/03/26 01:16:23;;;;;;;;;;;;;;;6.73;69.41;101186.03;5017817;28;1215;-96
2022/03/26 01:18:50;;;;;;;;;;;;;;;6.71;69.60;101186.25;5017796;28;1201;-96
2022/03/26 01:21:16;;;;;;;;;;;;;;;6.71;69.34;101193.44;5017771;28;1217;-96
2022/03/26 01:23:44;;;;;;;;;;;;;;;6.70;69.65;101197.94;5017010;28;1649;-96
2022/03/26 01:26:11;;;;;;;;;;;;;;;6.70;69.53;101199.78;5015408;28;1486;-96
2022/03/26 01:28:38;;;;;;;;;;;;;;;6.69;69.41;101195.44;5018756;28;1918;-95
2022/03/26 01:31:04;;;;;;;;;;;;;;;6.67;69.57;101198.28;5017755;28;1326;-95
2022/03/26 01:33:31;;;;;;;;;;;;;;;6.67;69.43;101211.69;5017157;28;1406;-96
2022/03/26 01:35:57;;;;;;;;;;;;;;;6.66;69.53;101217.22;5017807;28;1389;-95
2022/03/26 01:38:24;;;;;;;;;;;;;;;6.65;69.22;101224.44;5013270;28;1424;-96
2022/03/26 01:40:50;;;;;;;;;;;;;;;6.65;69.49;101232.47;5017231;28;1426;-95
2022/03/26 01:43:19;;;;;;;;;;;;;;;6.64;69.21;101238.81;5017272;28;1636;-96
2022/03/26 01:45:45;;;;;;;;;;;;;;;6.62;69.27;101248.88;5017809;28;1189;-95
2022/03/26 01:48:12;;;;;;;;;;;;;;;6.62;69.33;101251.56;5017188;28;1980;-95
2022/03/26 01:50:40;;;;;;;;;;;;;;;6.62;69.60;101261.41;5016920;28;1307;-95
2022/03/26 01:53:07;;;;;;;;;;;;;;;6.60;69.30;101254.38;5016212;28;1501;-95
2022/03/26 01:55:33;;;;;;;;;;;;;;;6.59;69.10;101258.09;5015551;28;1459;-96
2022/03/26 01:58:00;;;;;;;;;;;;;;;6.59;69.24;101260.75;5017076;28;1420;-96
2022/03/26 02:00:27;;;;;;;;;;;;;;;6.58;69.17;101263.59;5034259;28;1248;-94
2022/03/26 02:02:53;;;;;;;;;;;;;;;6.59;69.21;101262.59;5016786;28;1164;-95
2022/03/26 02:05:20;;;;;;;;;;;;;;;6.57;69.15;101262.78;5014596;28;3599;-95
2022/03/26 02:07:46;;;;;;;;;;;;;;;6.56;68.99;101265.66;5016726;28;1910;-95
2022/03/26 02:10:13;;;;;;;;;;;;;;;6.56;68.86;101262.97;5015997;28;1429;-95
2022/03/26 02:12:39;;;;;;;;;;;;;;;6.55;69.11;101271.97;5016887;28;1165;-95
2022/03/26 02:15:06;;;;;;;;;;;;;;;6.53;69.05;101277.53;5017562;28;981;-96
2022/03/26 02:17:33;;;;;;;;;;;;;;;6.54;69.32;101279.19;5017121;28;1323;-95
2022/03/26 02:19:59;;;;;;;;;;;;;;;6.54;69.28;101281.03;5015354;28;1502;-95
2022/03/26 02:22:26;;;;;;;;;;;;;;;6.52;69.09;101291.91;5016930;28;1197;-95
2022/03/26 02:24:52;;;;;;;;;;;;;;;6.53;68.92;101292.72;5016636;28;1682;-95
2022/03/26 02:27:19;;;;;;;;;;;;;;;6.52;69.17;101299.09;5003392;28;2269;-95
2022/03/26 02:29:45;;;;;;;;;;;;;;;6.50;68.98;101298.44;5013421;28;1286;-95
2022/03/26 02:32:12;;;;;;;;;;;;;;;6.48;69.07;101298.63;5014308;28;1180;-95
2022/03/26 02:34:39;;;;;;;;;;;;;;;6.48;69.28;101300.47;5016931;28;1322;-96
2022/03/26 02:37:05;;;;;;;;;;;;;;;6.47;69.22;101306.81;5016275;28;1207;-96
2022/03/26 02:39:32;;;;;;;;;;;;;;;6.47;69.43;101317.50;5016169;28;1768;-95
2022/03/26 02:41:58;;;;;;;;;;;;;;;6.45;69.42;101316.88;5015298;28;1411;-96
2022/03/26 02:44:25;;;;;;;;;;;;;;;6.45;69.01;101322.22;5016208;28;1230;-95
2022/03/26 02:46:51;;;;;;;;;;;;;;;6.43;69.11;101322.38;5015212;28;1902;-95
2022/03/26 02:49:18;;;;;;;;;;;;;;;6.44;69.02;101328.56;5016194;28;1303;-95
2022/03/26 02:51:44;;;;;;;;;;;;;;;6.43;68.98;101319.72;5014186;28;1518;-96
2022/03/26 02:54:18;;;;;;;;;;;;;;;6.44;69.05;101339.28;5016592;28;1232;-95
2022/03/26 02:56:45;;;;;;;;;;;;;;;6.43;69.41;101332.25;5012352;28;3748;-95
2022/03/26 02:59:12;;;;;;;;;;;;;;;6.41;69.22;101327.06;5016072;28;1339;-96
2022/03/26 03:01:38;;;;;;;;;;;;;;;6.41;69.05;101336.94;5013967;28;1515;-95
2022/03/26 03:04:06;;;;;;;;;;;;;;;6.40;69.07;101348.66;4999291;28;1272;-96
2022/03/26 03:06:33;;;;;;;;;;;;;;;6.40;69.09;101349.50;5014926;28;1443;-95
2022/03/26 03:08:59;;;;;;;;;;;;;;;6.39;69.09;101347.84;5031893;28;1977;-95
2022/03/26 03:11:26;;;;;;;;;;;;;;;6.37;69.09;101344.50;5030218;28;1491;-95
2022/03/26 03:13:53;;;;;;;;;;;;;;;6.37;69.08;101353.34;5004597;28;1180;-94
2022/03/26 03:16:19;;;;;;;;;;;;;;;6.36;69.05;101345.50;5027752;28;1569;-96
2022/03/26 03:18:46;;;;;;;;;;;;;;;6.37;69.46;101353.34;5014588;28;1564;-95
2022/03/26 03:21:12;;;;;;;;;;;;;;;6.36;69.02;101357.03;5014282;28;1559;-94
2022/03/26 03:23:39;;;;;;;;;;;;;;;6.36;69.06;101359.72;5015112;28;1185;-95
2022/03/26 03:26:06;;;;;;;;;;;;;;;6.35;69.07;101358.06;5013749;28;1637;-95
2022/03/26 03:28:33;;;;;;;;;;;;;;;6.34;69.02;101361.72;4994707;28;1974;-95
2022/03/26 03:30:59;;;;;;;;;;;;;;;6.34;69.41;101359.03;5005896;28;1601;-95
2022/03/26 03:33:26;;;;;;;;;;;;;;;6.33;69.11;101365.41;5009760;28;1483;-95
2022/03/26 03:35:53;;;;;;;;;;;;;;;6.33;69.00;101369.94;5015221;28;1652;-95
2022/03/26 03:38:19;;;;;;;;;;;;;;;6.31;69.12;101378.13;5015600;28;1346;-96
2022/03/26 03:40:46;;;;;;;;;;;;;;;6.32;69.27;101392.31;5013803;28;2171;-95
2022/03/26 03:43:12;;;;;;;;;;;;;;;6.31;69.22;101396.00;5009509;28;2189;-95
2022/03/26 03:45:39;;;;;;;;;;;;;;;6.30;69.05;101405.88;5011434;28;1362;-96
2022/03/26 03:48:06;;;;;;;;;;;;;;;6.29;69.06;101398.84;4995868;28;1918;-95
2022/03/26 03:50:33;;;;;;;;;;;;;;;6.28;69.08;101401.72;5010417;28;1550;-95
2022/03/26 03:53:00;;;;;;;;;;;;;;;6.27;69.08;101405.41;5014880;28;1196;-95
2022/03/26 03:55:28;;;;;;;;;;;;;;;6.27;69.50;101413.44;5010837;28;1547;-95
2022/03/26 03:57:54;;;;;;;;;;;;;;;6.25;69.29;101408.22;5015302;28;1224;-95
2022/03/26 04:00:21;;;;;;;;;;;;;;;6.23;69.17;101412.91;5015004;28;1929;-95
2022/03/26 04:02:48;;;;;;;;;;;;;;;6.24;69.48;101421.78;5022397;28;1356;-95
2022/03/26 04:05:14;;;;;;;;;;;;;;;6.23;69.24;101431.63;5013979;28;1472;-95
2022/03/26 04:07:41;;;;;;;;;;;;;;;6.22;69.14;101427.28;5014591;28;1910;-95
2022/03/26 04:10:08;;;;;;;;;;;;;;;6.22;69.32;101431.81;5030889;28;1473;-95
2022/03/26 04:12:34;;;;;;;;;;;;;;;6.21;69.08;101438.19;5014121;28;1256;-96
2022/03/26 04:15:01;;;;;;;;;;;;;;;6.19;69.11;101443.69;4998378;28;1347;-95
2022/03/26 04:17:28;;;;;;;;;;;;;;;6.19;69.25;101446.38;4997607;28;1172;-96
2022/03/26 04:19:54;;;;;;;;;;;;;;;6.18;69.41;101441.16;4998174;28;1170;-95
2022/03/26 04:22:21;;;;;;;;;;;;;;;6.17;69.39;101450.22;5029982;28;1549;-95
2022/03/26 04:24:47;;;;;;;;;;;;;;;6.15;69.29;101458.41;5013964;28;1483;-95
2022/03/26 04:27:14;;;;;;;;;;;;;;;6.14;69.23;101459.41;4998377;28;1363;-96
2022/03/26 04:29:40;;;;;;;;;;;;;;;6.12;69.38;101459.59;5013910;28;1922;-95
2022/03/26 04:32:07;;;;;;;;;;;;;;;6.12;69.41;101472.13;5013983;28;1172;-96
2022/03/26 04:34:34;;;;;;;;;;;;;;;6.10;69.13;101460.75;5014602;28;1265;-95
2022/03/26 04:37:00;;;;;;;;;;;;;;;6.08;69.21;101482.31;5005675;28;1228;-95
2022/03/26 04:39:27;;;;;;;;;;;;;;;6.07;69.25;101482.47;5001290;28;1542;-96
2022/03/26 04:41:53;;;;;;;;;;;;;;;6.07;69.02;101491.34;5014180;28;1279;-96
2022/03/26 04:44:20;;;;;;;;;;;;;;;6.06;69.31;101487.00;5029421;28;3553;-95
2022/03/26 04:46:46;;;;;;;;;;;;;;;6.03;69.22;101486.47;5014239;28;4004;-96
2022/03/26 04:49:13;;;;;;;;;;;;;;;5.98;69.33;101489.66;5014118;28;1918;-95
2022/03/26 04:51:39;;;;;;;;;;;;;;;5.96;69.48;101489.00;5014012;28;1220;-95
2022/03/26 04:54:06;;;;;;;;;;;;;;;5.95;69.38;101489.19;5013350;28;1509;-94
2022/03/26 04:56:32;;;;;;;;;;;;;;;5.92;69.29;101499.16;5012214;28;1447;-95
2022/03/26 04:58:59;;;;;;;;;;;;;;;5.92;69.16;101498.31;5014184;28;1216;-95
2022/03/26 05:01:25;;;;;;;;;;;;;;;5.89;69.65;101514.72;5010652;28;1288;-95
2022/03/26 05:03:52;;;;;;;;;;;;;;;5.88;69.70;101519.22;5006893;28;1180;-95
2022/03/26 05:06:19;;;;;;;;;;;;;;;5.88;69.49;101524.56;5013395;28;1433;-95
2022/03/26 05:08:45;;;;;;;;;;;;;;;5.87;69.71;101538.09;5014390;28;1973;-95
2022/03/26 05:11:13;;;;;;;;;;;;;;;5.87;69.43;101536.25;5013407;28;1438;-95
2022/03/26 05:13:40;;;;;;;;;;;;;;;5.85;69.19;101543.63;5030981;28;1233;-95
2022/03/26 05:16:07;;;;;;;;;;;;;;;5.84;69.44;101557.97;5030734;28;1339;-95
2022/03/26 05:18:34;;;;;;;;;;;;;;;5.83;69.36;101561.66;5030886;28;1199;-95
2022/03/26 05:21:01;;;;;;;;;;;;;;;5.81;69.51;101555.63;5029774;28;1670;-95
2022/03/26 05:23:27;;;;;;;;;;;;;;;5.82;69.48;101559.94;5030451;28;1204;-95
2022/03/26 05:25:54;;;;;;;;;;;;;;;5.84;69.32;101565.16;5028636;28;1418;-95
2022/03/26 05:28:21;;;;;;;;;;;;;;;5.83;69.05;101563.50;5011986;28;1910;-95
2022/03/26 05:30:47;;;;;;;;;;;;;;;5.82;69.32;101570.66;5017566;28;1198;-95
2022/03/26 05:33:14;;;;;;;;;;;;;;;5.81;69.25;101570.84;5017698;28;1357;-95
2022/03/26 05:35:41;;;;;;;;;;;;;;;5.79;69.09;101575.50;5017896;28;1296;-94
2022/03/26 05:38:08;;;;;;;;;;;;;;;5.77;69.22;101574.84;5017460;28;1204;-95
2022/03/26 05:40:35;;;;;;;;;;;;;;;5.77;69.27;101572.16;5016713;28;1487;-95
2022/03/26 05:43:02;;;;;;;;;;;;;;;5.76;69.20;101576.66;5033813;28;1208;-95
2022/03/26 05:45:29;;;;;;;;;;;;;;;5.75;69.11;101591.03;5033943;28;1532;-95
2022/03/26 05:47:56;;;;;;;;;;;;;;;5.75;69.31;101590.19;5017178;28;1914;-95
2022/03/26 05:50:23;;;;;;;;;;;;;;;5.75;69.16;101592.88;5017326;28;1378;-95
2022/03/26 05:52:49;;;;;;;;;;;;;;;5.75;68.96;101599.03;5017086;28;1410;-95
2022/03/26 05:55:16;;;;;;;;;;;;;;;5.74;69.19;101604.56;5016053;28;1554;-95
2022/03/26 05:57:43;;;;;;;;;;;;;;;5.73;69.13;101613.56;5017472;28;1216;-94
2022/03/26 06:00:10;;;;;;;;;;;;;;;5.72;69.17;101620.75;5017024;28;1897;-95
2022/03/26 06:02:37;;;;;;;;;;;;;;;5.71;69.08;101624.44;5000725;28;1433;-95
2022/03/26 06:05:04;;;;;;;;;;;;;;;5.70;68.81;101625.41;5017008;28;1264;-95
2022/03/26 06:07:30;;;;;;;;;;;;;;;5.69;68.90;101637.97;5017945;28;1124;-95
2022/03/26 06:09:57;;;;;;;;;;;;;;;5.70;69.08;101642.28;5007051;28;1910;-95
2022/03/26 06:12:23;;;;;;;;;;;;;;;5.68;69.16;101636.28;5009460;28;1348;-95
2022/03/26 06:14:50;;;;;;;;;;;;;;;5.66;69.13;101640.13;5027199;28;1698;-95
2022/03/26 06:17:17;;;;;;;;;;;;;;;5.65;69.22;101652.66;5015985;28;4468;-95
2022/03/26 06:19:43;;;;;;;;;;;;;;;5.66;69.07;101653.47;5011813;28;3521;-95
2022/03/26 06:22:10;;;;;;;;;;;;;;;5.64;69.01;101655.47;5007664;28;1336;-95
2022/03/26 06:24:37;;;;;;;;;;;;;;;5.61;69.04;101653.94;5015435;28;1569;-94
2022/03/26 06:27:03;;;;;;;;;;;;;;;5.61;69.02;101663.81;5016593;28;1266;-94
2022/03/26 06:29:30;;;;;;;;;;;;;;;5.59;69.01;101664.00;5016735;28;1980;-95
2022/03/26 06:31:56;;;;;;;;;;;;;;;5.59;68.70;101669.34;5016332;28;1308;-95
2022/03/26 06:34:24;;;;;;;;;;;;;;;5.59;68.96;101685.38;5015619;28;1443;-94
2022/03/26 06:36:50;;;;;;;;;;;;;;;5.57;69.13;101687.34;5016618;28;1657;-95
2022/03/26 06:39:17;;;;;;;;;;;;;;;5.57;68.97;101689.19;5015882;28;1474;-95
2022/03/26 06:41:44;;;;;;;;;;;;;;;5.56;68.83;101703.53;5026948;28;1377;-95
2022/03/26 06:44:10;;;;;;;;;;;;;;;5.56;68.67;101709.75;5016835;28;1179;-95
2022/03/26 06:46:37;;;;;;;;;;;;;;;5.56;68.72;101716.91;5016330;28;1488;-95
2022/03/26 06:49:04;;;;;;;;;;;;;;;5.55;69.03;101720.56;4999652;28;1979;-94
2022/03/26 06:51:31;;;;;;;;;;;;;;;5.54;68.87;101729.59;5008162;28;2007;-94
2022/03/26 06:53:58;;;;;;;;;;;;;;;5.54;68.83;101737.63;5016125;28;1268;-94
2022/03/26 06:56:24;;;;;;;;;;;;;;;5.55;68.77;101741.94;5015127;28;2152;-95
2022/03/26 06:58:51;;;;;;;;;;;;;;;5.54;68.84;101743.78;5026306;28;1807;-95
2022/03/26 07:01:17;;;;;;;;;;;;;;;5.53;68.80;101747.47;5014996;28;1592;-95
2022/03/26 07:03:44;;;;;;;;;;;;;;;5.52;68.87;101750.28;4999959;28;1310;-94
2022/03/26 07:06:12;;;;;;;;;;;;;;;5.50;68.82;101749.59;5005087;28;1251;-95
2022/03/26 07:08:39;;;;;;;;;;;;;;;5.49;68.82;101763.97;5030688;28;1910;-95
2022/03/26 07:11:05;;;;;;;;;;;;;;;5.48;68.79;101760.47;5013531;28;1559;-95
2022/03/26 07:13:32;;;;;;;;;;;;;;;5.47;68.78;101772.97;5014331;28;1581;-94
2022/03/26 07:15:58;;;;;;;;;;;;;;;5.50;68.55;101779.00;5015697;28;1286;-95
2022/03/26 07:18:25;;;;;;;;;;;;;;;5.48;68.87;101765.81;5015342;28;1331;-95
2022/03/26 07:20:56;;;;;;;;;;;;;;;5.46;68.59;101773.97;5015737;28;1302;-96
2022/03/26 07:23:22;;;;;;;;;;;;;;;5.45;68.83;101769.63;5015001;28;1498;-95
2022/03/26 07:25:49;;;;;;;;;;;;;;;5.45;68.42;101768.78;5014147;28;1533;-95
2022/03/26 07:28:16;;;;;;;;;;;;;;;5.46;68.42;101775.78;5007881;28;1982;-95
2022/03/26 07:30:43;;;;;;;;;;;;;;;5.46;68.60;101786.50;5015680;28;1315;-96
2022/03/26 07:33:09;;;;;;;;;;;;;;;5.43;68.30;101784.97;5015390;28;1286;-95
2022/03/26 07:35:36;;;;;;;;;;;;;;;5.43;68.57;101794.81;5015536;28;1287;-95
2022/03/26 07:38:02;;;;;;;;;;;;;;;5.44;68.41;101799.16;5015305;28;1644;-95
2022/03/26 07:40:29;;;;;;;;;;;;;;;5.43;68.35;101809.00;5013286;28;1371;-95
2022/03/26 07:42:56;;;;;;;;;;;;;;;5.43;68.59;101808.19;5015032;28;1343;-95
2022/03/26 07:45:22;;;;;;;;;;;;;;;5.43;68.43;101809.00;5015374;28;1287;-95
2022/03/26 07:47:49;;;;;;;;;;;;;;;5.44;68.37;101812.50;5015324;28;1648;-95
2022/03/26 07:50:15;;;;;;;;;;;;;;;5.42;68.72;101812.69;5014608;28;1918;-95
2022/03/26 07:52:42;;;;;;;;;;;;;;;5.42;68.34;101814.53;5012921;28;1388;-95
2022/03/26 07:55:09;;;;;;;;;;;;;;;5.41;68.35;101812.81;5014341;28;1538;-95
2022/03/26 07:57:35;;;;;;;;;;;;;;;5.41;68.37;101811.03;4998228;28;937;-95
2022/03/26 08:00:02;;;;;;;;;;;;;;;5.41;68.28;101816.38;5028276;28;1545;-94
2022/03/26 08:02:28;;;;;;;;;;;;;;;5.41;68.22;101808.34;5012443;28;1493;-94
2022/03/26 08:04:55;;;;;;;;;;;;;;;5.42;68.11;101819.88;5015789;28;1373;-95
2022/03/26 08:07:22;;;;;;;;;;;;;;;5.42;68.27;101826.03;5014689;28;1296;-95
2022/03/26 08:09:49;;;;;;;;;;;;;;;5.42;67.91;101825.22;5008842;28;4263;-95
2022/03/26 08:12:15;;;;;;;;;;;;;;;5.44;68.12;101837.44;5014382;28;1646;-94
2022/03/26 08:14:42;;;;;;;;;;;;;;;5.47;67.95;101846.94;5010235;28;3864;-94
2022/03/26 08:17:09;;;;;;;;;;;;;;;5.45;67.85;101847.13;4994691;28;3825;-96
2022/03/26 08:19:35;;;;;;;;;;;;;;;5.43;67.73;101846.41;5029453;28;1451;-95
2022/03/26 08:22:02;;;;;;;;;;;;;;;5.44;67.23;101840.09;5013028;28;1386;-95
2022/03/26 08:24:28;;;;;;;;;;;;;;;5.44;67.98;101837.44;5013559;28;1455;-96
2022/03/26 08:26:55;;;;;;;;;;;;;;;5.43;68.02;101835.72;4995798;28;1546;-94
2022/03/26 08:29:21;;;;;;;;;;;;;;;5.44;67.72;101833.88;5014718;28;1923;-94
2022/03/26 08:31:48;;;;;;;;;;;;;;;5.45;67.63;101836.41;4997234;28;1660;-95
2022/03/26 08:34:14;;;;;;;;;;;;;;;5.45;67.62;101847.13;5014721;28;1279;-94
2022/03/26 08:36:41;;;;;;;;;;;;;;;5.45;67.62;101848.94;4992065;28;1525;-95
2022/03/26 08:39:07;;;;;;;;;;;;;;;5.44;67.88;101864.16;5012563;28;1428;-95
2022/03/26 08:41:34;;;;;;;;;;;;;;;5.44;68.07;101866.81;5013879;28;1815;-95
2022/03/26 08:44:01;;;;;;;;;;;;;;;5.44;68.19;101865.97;5014367;28;1286;-95
2022/03/26 08:46:27;;;;;;;;;;;;;;;5.47;68.07;101884.34;5013888;28;1336;-95
2022/03/26 08:48:56;;;;;;;;;;;;;;;5.49;68.13;101881.53;5013463;28;1981;-95
2022/03/26 08:51:22;;;;;;;;;;;;;;;5.47;68.13;101884.34;5013948;28;1307;-96
2022/03/26 08:53:49;;;;;;;;;;;;;;;5.47;67.97;101882.53;5011214;28;1512;-95
2022/03/26 08:56:15;;;;;;;;;;;;;;;5.52;67.93;101886.56;5009822;28;1411;-95
2022/03/26 08:58:42;;;;;;;;;;;;;;;5.48;68.13;101891.41;5013355;28;1681;-94
2022/03/26 09:01:08;;;;;;;;;;;;;;;5.49;67.91;101890.41;5014050;28;1296;-96
2022/03/26 09:03:37;;;;;;;;;;;;;;;5.48;68.27;101896.75;4996228;28;1444;-95
2022/03/26 09:06:04;;;;;;;;;;;;;;;5.49;68.13;101902.91;5018239;28;1351;-95
2022/03/26 09:08:30;;;;;;;;;;;;;;;5.50;68.08;101897.44;5017133;28;1513;-95
2022/03/26 09:10:57;;;;;;;;;;;;;;;5.50;68.02;101904.59;5016987;28;1914;-95
2022/03/26 09:13:24;;;;;;;;;;;;;;;5.49;68.26;101903.75;5008921;28;1473;-95
2022/03/26 09:15:53;;;;;;;;;;;;;;;5.50;68.20;101900.09;5005441;28;1514;-95
2022/03/26 09:18:21;;;;;;;;;;;;;;;5.52;68.18;101895.44;5018083;28;1512;-95
2022/03/26 09:20:47;;;;;;;;;;;;;;;5.51;67.82;101901.78;5007999;28;3501;-95
2022/03/26 09:23:14;;;;;;;;;;;;;;;5.53;67.81;101915.84;5015697;28;1450;-95
2022/03/26 09:25:41;;;;;;;;;;;;;;;5.53;68.07;101906.94;5033379;28;1940;-95
2022/03/26 09:28:08;;;;;;;;;;;;;;;5.55;68.00;101899.63;5017926;28;1526;-96
2022/03/26 09:30:36;;;;;;;;;;;;;;;5.57;67.86;101886.97;5016856;28;1981;-95
2022/03/26 09:33:02;;;;;;;;;;;;;;;5.56;67.87;101893.28;5033825;28;1761;-94
2022/03/26 09:35:29;;;;;;;;;;;;;;;5.55;67.93;101878.25;5017660;28;1240;-95
2022/03/26 09:37:56;;;;;;;;;;;;;;;5.56;68.26;101871.91;5017470;28;1211;-95
2022/03/26 09:40:23;;;;;;;;;;;;;;;5.58;67.73;101873.44;5015160;28;1426;-95
2022/03/26 09:42:50;;;;;;;;;;;;;;;5.61;67.65;101882.97;5018098;28;1431;-95
2022/03/26 09:45:16;;;;;;;;;;;;;;;5.60;68.05;101884.81;5014944;28;1487;-95
2022/03/26 09:47:43;;;;;;;;;;;;;;;5.61;67.93;101891.00;5015643;28;1458;-96
2022/03/26 09:50:10;;;;;;;;;;;;;;;5.60;67.95;101900.84;5019377;28;1918;-95
2022/03/26 09:52:36;;;;;;;;;;;;;;;5.63;68.00;101905.88;5041312;28;1552;-95
2022/03/26 09:55:04;;;;;;;;;;;;;;;5.61;67.97;101905.19;5016738;28;1554;-95
2022/03/26 09:57:30;;;;;;;;;;;;;;;5.63;68.17;101913.06;5018317;28;1602;-94
2022/03/26 09:59:57;;;;;;;;;;;;;;;5.67;67.95;101907.25;5015749;28;1783;-95
2022/03/26 10:02:23;;;;;;;;;;;;;;;5.66;68.09;101908.25;5019182;28;1449;-95
2022/03/26 10:04:50;;;;;;;;;;;;;;;5.67;67.62;101915.25;5019491;28;1875;-95
2022/03/26 10:07:17;;;;;;;;;;;;;;;5.70;68.00;101919.47;5020250;28;1331;-95
2022/03/26 10:09:44;;;;;;;;;;;;;;;5.71;68.06;101921.16;5015413;28;2078;-96
2022/03/26 10:12:11;;;;;;;;;;;;;;;5.73;68.12;101916.47;5019568;28;1648;-96
2022/03/26 10:14:37;;;;;;;;;;;;;;;5.75;67.72;101913.66;5017073;28;1673;-95
2022/03/26 10:17:04;;;;;;;;;;;;;;;5.71;68.20;101913.16;5014630;28;2158;-95
2022/03/26 10:19:30;;;;;;;;;;;;;;;5.74;67.86;101915.50;5018824;28;2004;-96
2022/03/26 10:21:57;;;;;;;;;;;;;;;5.75;68.09;101903.81;5009925;28;2096;-95
2022/03/26 10:24:24;;;;;;;;;;;;;;;5.78;68.02;101911.53;5019227;28;1522;-95
2022/03/26 10:26:50;;;;;;;;;;;;;;;5.78;67.78;101919.53;5017200;28;1594;-95
2022/03/26 10:29:17;;;;;;;;;;;;;;;5.78;67.82;101924.06;5017580;28;2090;-96
2022/03/26 10:34:27;;;;;;;;;;;;;;;5.79;67.98;101926.56;5018970;28;1354;-96
2022/03/26 10:36:54;;;;;;;;;;;;;;;5.81;68.09;101931.75;5019530;28;1563;-96
2022/03/26 10:39:21;;;;;;;;;;;;;;;5.81;68.00;101939.78;5019248;28;1490;-96
2022/03/26 10:41:47;;;;;;;;;;;;;;;5.82;68.26;101941.44;5018927;28;1634;-96
2022/03/26 10:44:14;;;;;;;;;;;;;;;5.83;67.96;101935.13;5018896;28;1518;-96
2022/03/26 10:46:40;;;;;;;;;;;;;;;5.84;68.16;101945.66;5020572;28;1507;-96
2022/03/26 10:49:07;;;;;;;;;;;;;;;5.84;68.06;101948.31;5019653;28;1985;-96
2022/03/26 10:51:34;;;;;;;;;;;;;;;5.86;68.13;101940.16;5019194;28;1845;-96
2022/03/26 10:54:01;;;;;;;;;;;;;;;5.87;68.29;101955.22;5019362;28;1335;-96
2022/03/26 10:56:28;;;;;;;;;;;;;;;5.88;68.37;101960.41;5017885;28;1581;-96
2022/03/26 10:58:54;;;;;;;;;;;;;;;5.89;68.25;101958.56;5019429;28;1641;-96
2022/03/26 11:01:21;;;;;;;;;;;;;;;5.89;68.16;101959.41;5019628;28;1455;-96
2022/03/26 11:03:48;;;;;;;;;;;;;;;5.90;68.39;101966.44;5019880;28;1542;-96
2022/03/26 11:06:15;;;;;;;;;;;;;;;5.90;68.43;101971.78;5019111;28;1554;-96
2022/03/26 11:08:42;;;;;;;;;;;;;;;5.92;68.25;101982.34;5048002;28;1513;-96
2022/03/26 11:11:09;;;;;;;;;;;;;;;5.94;68.40;101969.66;5014780;28;2298;-96
2022/03/26 11:13:36;;;;;;;;;;;;;;;5.95;68.71;101982.06;5002559;28;1492;-95
2022/03/26 11:16:09;;;;;;;;;;;;;;;5.96;68.68;101977.53;5029445;28;1565;-95
2022/03/26 11:18:35;;;;;;;;;;;;;;;5.95;68.81;101978.53;5018430;28;1647;-95
2022/03/26 11:21:02;;;;;;;;;;;;;;;5.97;68.78;101973.84;5016911;28;2213;-94
2022/03/26 11:23:28;;;;;;;;;;;;;;;5.97;68.61;101974.72;5014836;28;1615;-95
2022/03/26 11:25:55;;;;;;;;;;;;;;;5.99;68.76;101982.56;5018968;28;1478;-94
2022/03/26 11:28:22;;;;;;;;;;;;;;;6.00;68.71;101974.41;5023521;28;1558;-96
2022/03/26 11:30:48;;;;;;;;;;;;;;;6.01;68.81;101977.94;5016379;28;3653;-95
2022/03/26 11:33:15;;;;;;;;;;;;;;;6.01;68.67;101973.41;5022327;28;1343;-95
2022/03/26 11:35:42;;;;;;;;;;;;;;;6.02;68.48;101976.91;5010263;28;3800;-95
2022/03/26 11:38:08;;;;;;;;;;;;;;;6.03;68.79;101974.09;5016333;28;3666;-95
2022/03/26 11:40:35;;;;;;;;;;;;;;;6.03;68.87;101974.09;5009924;28;2653;-95
2022/03/26 11:43:01;;;;;;;;;;;;;;;6.05;68.80;101979.28;5022031;28;3682;-95
2022/03/26 11:50:55;;;;;;;;;;;;;;;6.08;68.44;101984.31;5007900;28;3664;-95
2022/03/26 11:53:22;;;;;;;;;;;;;;;6.10;69.08;101977.00;5031147;28;3746;-95
2022/03/26 11:55:48;;;;;;;;;;;;;;;6.10;68.64;101988.53;5017887;28;4072;-95
2022/03/26 11:58:15;;;;;;;;;;;;;;;6.13;68.92;101992.72;5012437;28;3815;-95
2022/03/26 12:00:42;;;;;;;;;;;;;;;6.14;69.16;101994.41;5029850;28;1326;-95
2022/03/26 12:03:08;;;;;;;;;;;;;;;6.15;69.03;101982.72;5012167;28;2066;-95
2022/03/26 12:08:19;;;;;;;;;;;;;;;6.16;69.40;101971.00;5016403;28;4129;-96
2022/03/26 12:10:47;;;;;;;;;;;;;;;6.17;69.29;101974.53;5013592;28;3757;-95
2022/03/26 12:13:13;;;;;;;;;;;;;;;6.19;69.04;101976.06;5017378;28;1636;-96
2022/03/26 12:15:40;;;;;;;;;;;;;;;6.20;69.30;101974.22;5009640;28;3405;-96
2022/03/26 12:18:06;;;;;;;;;;;;;;;6.20;69.10;101963.50;5017984;28;1189;-96
2022/03/26 12:20:33;;;;;;;;;;;;;;;6.22;69.02;101962.34;5017691;28;1336;-96
2022/03/26 12:22:59;;;;;;;;;;;;;;;6.25;69.15;101969.25;5018141;28;1358;-96
2022/03/26 12:25:26;;;;;;;;;;;;;;;6.26;69.47;101969.06;5017175;28;1925;-95
2022/03/26 12:27:52;;;;;;;;;;;;;;;6.28;69.12;101983.13;5017297;28;1920;-96
2022/03/26 12:30:19;;;;;;;;;;;;;;;6.31;69.09;101987.34;5014981;28;1914;-96
2022/03/26 12:32:46;;;;;;;;;;;;;;;6.30;69.61;101983.81;5014630;28;1200;-96
2022/03/26 12:35:13;;;;;;;;;;;;;;;6.32;69.25;101983.66;5031933;28;2511;-96
2022/03/26 12:37:40;;;;;;;;;;;;;;;6.33;69.39;101985.34;5016500;28;1715;-96
2022/03/26 12:40:07;;;;;;;;;;;;;;;6.34;69.58;101979.81;5001590;28;1177;-95
2022/03/26 12:42:34;;;;;;;;;;;;;;;6.34;69.38;101982.50;5028130;28;1549;-96
2022/03/26 12:45:00;;;;;;;;;;;;;;;6.36;69.47;101977.00;5016514;28;1703;-95
2022/03/26 12:47:27;;;;;;;;;;;;;;;6.38;69.78;101966.97;5017180;28;1539;-95
2022/03/26 12:49:54;;;;;;;;;;;;;;;6.38;69.47;101961.63;5014786;28;1906;-96
2022/03/26 12:52:21;;;;;;;;;;;;;;;6.41;69.73;101963.13;5014436;28;1295;-96
2022/03/26 12:54:47;;;;;;;;;;;;;;;6.41;69.61;101969.31;5002548;28;1421;-96
2022/03/26 12:57:14;;;;;;;;;;;;;;;6.43;69.81;101969.19;5014994;28;1511;-96
2022/03/26 12:59:39;;;;;;;;;;;;;;;6.44;69.85;101958.34;5016992;28;1368;-96
2022/03/26 13:02:06;;;;;;;;;;;;;;;6.46;70.02;101966.19;5001927;28;1543;-96
2022/03/26 13:04:33;;;;;;;;;;;;;;;6.48;69.75;101964.22;5016292;28;1558;-96